Time;durP1;ratioP1;P1;durP2;ratioP2;P2;SDS_P1;SDS_P2;PMS_P1;PMS_P2;Temp;Humidity;BMP_temperature;BMP_pressure;BME280_temperature;BME280_humidity;BME280_pressure;Samples;Min_cycle;Max_cycle;Signal;HPM_P1;HPM_P2
2023/12/06 00:01:44;;;;;;;20.90;6.88;;;4.90;99.90;;;4.63;100.00;100309.81;5223009;28;20052;-48
2023/12/06 00:04:16;;;;;;;21.20;6.38;;;4.90;99.90;;;4.61;100.00;100308.81;5222351;28;20049;-48
2023/12/06 00:06:49;;;;;;;22.00;7.32;;;4.90;99.90;;;4.60;100.00;100304.47;5240524;28;20040;-47
2023/12/06 00:09:21;;;;;;;21.80;7.20;;;4.90;99.90;;;4.56;100.00;100312.91;5241538;28;20045;-47
2023/12/06 00:11:53;;;;;;;19.08;6.13;;;4.90;99.90;;;4.53;100.00;100312.72;5239194;28;20049;-49
2023/12/06 00:14:27;;;;;;;21.10;6.80;;;4.80;99.90;;;4.49;100.00;100310.78;5227213;28;20052;-47
2023/12/06 00:16:59;;;;;;;21.83;7.80;;;4.80;99.90;;;4.47;100.00;100312.41;5240286;28;20040;-47
2023/12/06 00:19:32;;;;;;;19.52;6.80;;;4.80;99.90;;;4.45;100.00;100314.03;5249808;28;20052;-47
2023/12/06 00:22:04;;;;;;;19.20;7.30;;;4.80;99.90;;;4.41;100.00;100311.22;5237270;28;20515;-47
2023/12/06 00:24:37;;;;;;;18.30;6.65;;;4.70;99.90;;;4.39;100.00;100318.88;5225253;28;20055;-48
2023/12/06 00:27:10;;;;;;;18.75;6.25;;;4.70;99.90;;;4.40;100.00;100314.59;5229572;28;20061;-47
2023/12/06 00:29:44;;;;;;;18.17;6.65;;;4.70;99.90;;;4.41;100.00;100322.41;5235420;28;20137;-47
2023/12/06 00:32:16;;;;;;;20.80;6.93;;;4.70;99.90;;;4.42;100.00;100323.28;5236248;28;20056;-47
2023/12/06 00:34:48;;;;;;;17.02;6.15;;;4.70;99.90;;;4.43;100.00;100331.13;5224906;28;20044;-47
2023/12/06 00:37:21;;;;;;;17.20;6.10;;;4.70;99.90;;;4.47;100.00;100333.06;5245833;28;20459;-48
2023/12/06 00:39:53;;;;;;;23.60;7.43;;;4.80;99.90;;;4.48;100.00;100329.66;5243367;28;20055;-48
2023/12/06 00:42:25;;;;;;;19.75;6.68;;;4.70;99.90;;;4.48;100.00;100329.66;5225529;28;20045;-48
2023/12/06 00:45:00;;;;;;;20.27;7.30;;;4.80;99.90;;;4.46;100.00;100338.16;5244262;28;20045;-47
2023/12/06 00:47:32;;;;;;;22.20;6.85;;;4.70;99.90;;;4.39;100.00;100336.94;5228004;28;20056;-47
2023/12/06 00:50:06;;;;;;;20.35;7.15;;;4.70;99.90;;;4.36;100.00;100344.50;5242838;28;20052;-48
2023/12/06 00:52:38;;;;;;;18.75;7.30;;;4.70;99.90;;;4.33;100.00;100334.94;5241991;28;20046;-46
2023/12/06 00:55:10;;;;;;;19.90;6.57;;;4.70;99.90;;;4.31;100.00;100345.97;5235555;28;20080;-47
2023/12/06 00:57:43;;;;;;;16.95;6.18;;;4.60;99.90;;;4.28;100.00;100356.13;5232730;28;20419;-48
2023/12/06 01:00:18;;;;;;;16.00;5.82;;;4.60;99.90;;;4.19;100.00;100343.63;5227711;28;20056;-48
2023/12/06 01:02:51;;;;;;;18.98;6.68;;;4.60;99.90;;;4.16;100.00;100350.31;5241864;28;20049;-47
2023/12/06 01:05:23;;;;;;;15.60;6.15;;;4.50;99.90;;;4.12;100.00;100358.72;5258427;28;20053;-47
2023/12/06 01:07:55;;;;;;;15.10;6.03;;;4.50;99.90;;;4.07;100.00;100361.94;5250392;28;20052;-48
2023/12/06 01:10:28;;;;;;;13.02;5.22;;;4.40;99.90;;;4.01;100.00;100364.16;5229132;28;20080;-46
2023/12/06 01:13:00;;;;;;;15.13;6.45;;;4.40;99.90;;;3.98;100.00;100371.75;5245116;28;20441;-46
2023/12/06 01:15:34;;;;;;;15.75;6.45;;;4.30;99.90;;;3.99;100.00;100377.81;5226136;28;20507;-47
2023/12/06 01:18:07;;;;;;;16.38;6.35;;;4.30;99.90;;;4.00;100.00;100380.47;5246789;28;20407;-47
2023/12/06 01:20:39;;;;;;;18.30;6.88;;;4.30;99.90;;;3.96;100.00;100383.66;5255776;28;20494;-47
2023/12/06 01:23:11;;;;;;;16.25;7.13;;;4.30;99.90;;;3.86;100.00;100386.56;5242343;28;20087;-48
2023/12/06 01:25:44;;;;;;;19.35;6.93;;;4.20;99.90;;;3.81;100.00;100388.88;5245408;28;20248;-48
2023/12/06 01:28:16;;;;;;;17.77;6.00;;;4.20;99.90;;;3.80;100.00;100392.25;5229699;28;20416;-46
2023/12/06 01:30:50;;;;;;;18.50;7.40;;;4.10;99.90;;;3.80;100.00;100396.53;5239069;28;20071;-47
2023/12/06 01:33:22;;;;;;;17.65;7.03;;;4.10;99.90;;;3.77;100.00;100396.34;5239105;28;20041;-47
2023/12/06 01:35:54;;;;;;;19.70;7.70;;;4.10;99.90;;;3.75;100.00;100398.84;5227195;28;20072;-46
2023/12/06 01:38:27;;;;;;;14.15;6.07;;;4.10;99.90;;;3.77;100.00;100407.53;5245539;28;20056;-47
2023/12/06 01:40:59;;;;;;;15.18;6.07;;;4.10;99.90;;;3.78;100.00;100403.28;5243514;28;20071;-48
2023/12/06 01:43:32;;;;;;;16.10;5.97;;;4.10;99.90;;;3.78;100.00;100409.34;5226268;28;20507;-47
2023/12/06 01:46:06;;;;;;;14.15;5.78;;;4.10;99.90;;;3.81;100.00;100409.50;5226892;28;20051;-48
2023/12/06 01:48:38;;;;;;;15.32;5.68;;;4.10;99.90;;;3.85;100.00;100405.41;5226264;28;20083;-47
2023/12/06 01:51:12;;;;;;;13.43;5.35;;;4.10;99.90;;;3.88;100.00;100415.00;5253100;28;20049;-48
2023/12/06 01:53:45;;;;;;;15.27;5.40;;;4.20;99.90;;;3.87;100.00;100419.28;5226302;28;20044;-47
2023/12/06 01:56:20;;;;;;;15.98;6.38;;;4.20;99.90;;;3.86;100.00;100421.78;5234080;28;20044;-46
2023/12/06 01:58:53;;;;;;;;;;;4.20;99.90;;;3.86;100.00;100427.81;5231940;28;20047;-47
2023/12/06 02:01:27;;;;;;;14.50;5.50;;;4.20;99.90;;;3.89;100.00;100433.13;5251311;28;19924;-46
2023/12/06 02:04:00;;;;;;;14.35;4.95;;;4.20;99.90;;;3.91;100.00;100428.97;5228827;28;20431;-47
2023/12/06 02:06:32;;;;;;;15.80;6.60;;;4.20;99.90;;;3.89;100.00;100433.13;5233631;28;20048;-48
2023/12/06 02:09:08;;;;;;;16.08;6.10;;;4.20;99.90;;;3.87;100.00;100434.75;5236689;28;20047;-48
2023/12/06 02:11:41;;;;;;;17.38;6.53;;;4.20;99.90;;;3.84;100.00;100437.13;5226933;28;20106;-48
2023/12/06 02:14:13;;;;;;;16.52;6.78;;;4.10;99.90;;;3.80;100.00;100438.66;5244928;28;20037;-46
2023/12/06 02:16:47;;;;;;;16.80;6.55;;;4.10;99.90;;;3.78;100.00;100439.38;5226786;28;20056;-46
2023/12/06 02:19:26;;;;;;;16.60;7.15;;;4.10;99.90;;;3.77;100.00;100440.19;5248990;28;20303;-47
2023/12/06 02:21:59;;;;;;;19.30;7.10;;;4.10;99.90;;;3.77;100.00;100447.91;5226361;28;20410;-46
2023/12/06 02:24:33;;;;;;;19.38;7.72;;;4.10;99.90;;;3.74;100.00;100450.34;5236216;28;20067;-47
2023/12/06 02:27:07;;;;;;;19.40;6.85;;;4.10;99.90;;;3.75;100.00;100452.09;5236596;28;20392;-48
2023/12/06 02:29:39;;;;;;;21.42;8.80;;;4.10;99.90;;;3.71;100.00;100451.03;5227758;28;20032;-46
2023/12/06 02:32:11;;;;;;;22.55;8.30;;;4.00;99.90;;;3.65;100.00;100455.88;5247363;28;20048;-46
2023/12/06 02:34:46;;;;;;;18.15;7.55;;;4.00;99.90;;;3.64;100.00;100451.47;5238508;28;20534;-48
2023/12/06 02:37:20;;;;;;;22.48;8.57;;;4.00;99.90;;;3.64;100.00;100450.59;5241394;28;20048;-47
2023/12/06 02:39:54;;;;;;;23.10;9.02;;;4.00;99.90;;;3.63;100.00;100460.03;5225108;28;20049;-47
2023/12/06 02:42:28;;;;;;;20.33;8.02;;;3.90;99.90;;;3.62;100.00;100459.94;5242440;28;20047;-47
2023/12/06 02:45:00;;;;;;;18.23;7.35;;;4.00;99.90;;;3.62;100.00;100459.94;5244761;28;20542;-47
2023/12/06 02:47:32;;;;;;;25.95;9.75;;;4.00;99.90;;;3.61;100.00;100456.47;5223584;28;20043;-46
2023/12/06 02:50:06;;;;;;;23.80;9.10;;;4.00;99.90;;;3.59;100.00;100459.78;5241571;28;20283;-47
2023/12/06 02:52:39;;;;;;;24.70;9.65;;;3.90;99.90;;;3.59;100.00;100459.78;5225574;28;20044;-47
2023/12/06 02:55:11;;;;;;;21.30;8.27;;;3.90;99.90;;;3.59;100.00;100457.22;5242305;28;20052;-47
2023/12/06 02:57:45;;;;;;;23.17;9.07;;;3.90;99.90;;;3.61;100.00;100455.59;5225972;28;20055;-48
2023/12/06 03:00:18;;;;;;;25.73;9.00;;;3.90;99.90;;;3.64;100.00;100460.91;5242450;28;20050;-47
2023/12/06 03:02:51;;;;;;;29.73;11.65;;;3.90;99.90;;;3.60;100.00;100464.13;5245855;28;20053;-47
2023/12/06 03:05:22;;;;;;;29.45;10.25;;;3.90;99.90;;;3.61;100.00;100468.47;5237420;28;20041;-48
2023/12/06 03:07:55;;;;;;;30.10;11.15;;;3.90;99.90;;;3.58;100.00;100476.03;5225471;28;20044;-47
2023/12/06 03:10:27;;;;;;;34.13;13.25;;;3.90;99.90;;;3.52;100.00;100466.25;5225903;28;20052;-47
2023/12/06 03:13:01;;;;;;;42.13;12.85;;;3.90;99.90;;;3.48;100.00;100470.34;5241469;28;20067;-47
2023/12/06 03:15:33;;;;;;;38.22;14.10;;;3.90;99.90;;;3.45;100.00;100475.31;5224581;28;20083;-47
2023/12/06 03:18:06;;;;;;;45.58;14.90;;;3.80;99.90;;;3.42;100.00;100472.56;5235655;28;20067;-46
2023/12/06 03:20:38;;;;;;;42.40;14.07;;;3.80;99.90;;;3.38;100.00;100473.19;5224567;28;20211;-47
2023/12/06 03:23:10;;;;;;;51.05;16.27;;;3.80;99.90;;;3.35;100.00;100473.03;5225188;28;20132;-47
2023/12/06 03:25:43;;;;;;;54.72;18.80;;;3.70;99.90;;;3.28;100.00;100481.19;5229476;28;20457;-47
2023/12/06 03:28:16;;;;;;;47.67;16.02;;;3.60;99.90;;;3.22;100.00;100480.81;5226251;28;20048;-46
2023/12/06 03:30:49;;;;;;;51.42;17.20;;;3.60;99.90;;;3.17;100.00;100477.97;5224526;28;20048;-46
2023/12/06 03:33:21;;;;;;;52.10;17.15;;;3.50;99.90;;;3.11;100.00;100487.91;5241185;28;20048;-46
2023/12/06 03:35:53;;;;;;;51.08;17.25;;;3.50;99.90;;;3.07;100.00;100482.50;5240759;28;20384;-47
2023/12/06 03:38:26;;;;;;;50.92;16.85;;;3.40;99.90;;;3.05;100.00;100489.22;5227696;28;20048;-46
2023/12/06 03:41:01;;;;;;;44.20;14.65;;;3.40;99.90;;;3.05;100.00;100486.66;5234420;28;20044;-47
2023/12/06 03:43:35;;;;;;;47.80;16.35;;;3.40;99.90;;;3.05;100.00;100490.13;5226506;28;20048;-46
2023/12/06 03:46:09;;;;;;;48.72;18.00;;;3.40;99.90;;;3.04;100.00;100501.22;5237694;28;20562;-47
2023/12/06 03:48:41;;;;;;;52.53;17.23;;;3.40;99.90;;;3.02;100.00;100492.53;5239249;28;20141;-47
2023/12/06 03:51:14;;;;;;;51.90;17.08;;;3.40;99.90;;;3.04;100.00;100503.78;5229582;28;20503;-46
2023/12/06 03:53:46;;;;;;;49.10;17.90;;;3.40;99.90;;;3.00;100.00;100499.28;5223802;28;20045;-47
2023/12/06 03:56:18;;;;;;;45.13;16.45;;;3.40;99.90;;;2.97;100.00;100510.25;5228962;28;20048;-47
2023/12/06 03:58:53;;;;;;;44.42;16.63;;;3.30;99.90;;;3.02;100.00;100514.81;5230093;28;20048;-47
2023/12/06 04:01:26;;;;;;;49.75;17.02;;;3.40;99.90;;;3.02;100.00;100513.13;5230196;28;20037;-47
2023/12/06 04:03:58;;;;;;;47.95;17.25;;;3.40;99.90;;;2.98;100.00;100530.06;5234115;28;20037;-47
2023/12/06 04:06:30;;;;;;;46.30;16.45;;;3.30;99.90;;;3.03;100.00;100521.75;5237239;28;20052;-47
2023/12/06 04:09:03;;;;;;;41.30;15.30;;;3.40;99.90;;;3.08;100.00;100517.75;5240391;28;20041;-47
2023/12/06 04:11:35;;;;;;;47.90;17.75;;;3.40;99.90;;;3.10;100.00;100527.34;5225469;28;20116;-46
2023/12/06 04:14:09;;;;;;;44.85;16.42;;;3.40;99.90;;;3.08;100.00;100522.91;5231255;28;20045;-46
2023/12/06 04:16:41;;;;;;;47.88;17.13;;;3.40;99.90;;;3.04;100.00;100515.78;5240411;28;20063;-46
2023/12/06 04:19:14;;;;;;;49.45;17.17;;;3.40;99.90;;;3.02;100.00;100520.84;5239928;28;20045;-47
2023/12/06 04:21:46;;;;;;;43.78;16.88;;;3.40;99.90;;;3.03;100.00;100529.47;5243955;28;20507;-47
2023/12/06 04:24:18;;;;;;;41.55;15.48;;;3.40;99.90;;;3.01;100.00;100533.63;5234337;28;20044;-47
2023/12/06 04:26:51;;;;;;;43.10;15.80;;;3.40;99.90;;;2.98;100.00;100527.47;5252135;28;20477;-47
2023/12/06 04:29:25;;;;;;;42.42;15.18;;;3.30;99.90;;;2.94;100.00;100533.28;5244478;28;20048;-48
2023/12/06 04:31:57;;;;;;;40.85;14.65;;;3.30;99.90;;;2.88;100.00;100538.03;5258534;28;20048;-47
2023/12/06 04:34:34;;;;;;;38.70;15.27;;;3.30;99.90;;;2.88;100.00;100535.47;5244922;28;20048;-47
2023/12/06 04:37:06;;;;;;;38.15;14.93;;;3.20;99.90;;;2.87;100.00;100544.00;5234630;28;20041;-47
2023/12/06 04:39:39;;;;;;;39.90;14.88;;;3.20;99.90;;;2.85;100.00;100548.13;5227449;28;20059;-47
2023/12/06 04:42:11;;;;;;;34.40;13.75;;;3.20;99.90;;;2.87;100.00;100554.28;5238599;28;20789;-45
2023/12/06 04:44:45;;;;;;;39.80;14.30;;;3.20;99.90;;;2.90;100.00;100551.88;5244404;28;20045;-47
2023/12/06 04:47:17;;;;;;;36.15;13.75;;;3.20;99.90;;;2.93;100.00;100559.81;5240739;28;20049;-47
2023/12/06 04:49:49;;;;;;;42.03;14.73;;;3.30;99.90;;;2.95;100.00;100562.47;5244057;28;20048;-47
2023/12/06 04:52:24;;;;;;;41.65;15.63;;;3.30;99.90;;;2.94;100.00;100569.31;5233738;28;20533;-47
2023/12/06 04:54:56;;;;;;;41.85;15.30;;;3.30;99.90;;;2.94;100.00;100571.00;5244241;28;21049;-46
2023/12/06 04:57:29;;;;;;;40.00;14.60;;;3.30;99.90;;;2.95;100.00;100572.78;5246418;28;20048;-47
2023/12/06 05:00:04;;;;;;;35.75;15.07;;;3.30;99.90;;;2.95;100.00;100573.66;5243297;28;20044;-47
2023/12/06 05:02:36;;;;;;;35.97;13.48;;;3.30;99.90;;;2.95;100.00;100583.06;5243974;28;20079;-47
2023/12/06 05:05:09;;;;;;;35.85;14.75;;;3.30;99.90;;;2.94;100.00;100582.19;5234897;28;20045;-47
2023/12/06 05:07:42;;;;;;;37.30;14.45;;;3.30;99.90;;;2.96;100.00;100590.88;5241078;28;20060;-48
2023/12/06 05:10:14;;;;;;;35.13;13.00;;;3.30;99.90;;;2.98;100.00;100590.97;5238404;28;20032;-47
2023/12/06 05:12:46;;;;;;;38.17;14.52;;;3.30;99.90;;;2.99;100.00;100596.22;5237786;28;20055;-47
2023/12/06 05:15:20;;;;;;;32.95;13.13;;;3.30;99.90;;;3.02;100.00;100597.22;5240074;28;20053;-46
2023/12/06 05:17:53;;;;;;;37.42;13.38;;;3.40;99.90;;;3.00;100.00;100602.28;5242001;28;20415;-46
2023/12/06 05:20:25;;;;;;;37.05;14.70;;;3.30;99.90;;;2.99;100.00;100603.94;5240430;28;20095;-48
2023/12/06 05:22:57;;;;;;;34.90;13.70;;;3.40;99.90;;;2.98;100.00;100602.16;5223666;28;20423;-47
2023/12/06 05:25:30;;;;;;;37.38;12.80;;;3.30;99.90;;;3.01;100.00;100604.06;5233144;28;20072;-47
2023/12/06 05:28:02;;;;;;;40.03;15.30;;;3.40;99.90;;;3.03;100.00;100599.00;5244830;28;20048;-47
2023/12/06 05:30:36;;;;;;;34.05;12.48;;;3.40;99.90;;;3.04;100.00;100604.22;5247662;28;20056;-47
2023/12/06 05:33:08;;;;;;;41.53;15.48;;;3.40;99.90;;;3.05;100.00;100610.28;5243297;28;20407;-47
2023/12/06 05:35:41;;;;;;;39.08;14.13;;;3.40;99.90;;;3.06;100.00;100604.31;5241799;28;20053;-46
2023/12/06 05:38:13;;;;;;;40.00;14.43;;;3.40;99.90;;;3.08;100.00;100605.31;5237221;28;20055;-47
2023/12/06 05:40:46;;;;;;;36.72;13.23;;;3.40;99.90;;;3.10;100.00;100608.88;5237253;28;20044;-46
2023/12/06 05:43:18;;;;;;;40.08;14.20;;;3.40;99.90;;;3.12;100.00;100608.16;5243407;28;20048;-47
2023/12/06 05:45:52;;;;;;;38.42;14.40;;;3.50;99.90;;;3.13;100.00;100606.47;5230308;28;20056;-47
2023/12/06 05:48:24;;;;;;;37.58;14.15;;;3.50;99.90;;;3.15;100.00;100607.47;5241164;28;20049;-48
2023/12/06 05:50:56;;;;;;;34.20;12.57;;;3.50;99.90;;;3.19;100.00;100607.72;5237621;28;20048;-47
2023/12/06 05:53:29;;;;;;;42.40;16.00;;;3.50;99.90;;;3.22;100.00;100617.34;5240067;28;20045;-47
2023/12/06 05:56:01;;;;;;;40.33;15.13;;;3.50;99.90;;;3.24;100.00;100616.63;5243483;28;20052;-48
2023/12/06 05:58:34;;;;;;;30.58;12.00;;;3.60;99.90;;;3.27;100.00;100621.09;5240890;28;20048;-47
2023/12/06 06:01:08;;;;;;;35.10;14.15;;;3.60;99.90;;;3.31;100.00;100625.63;5238576;28;20048;-47
2023/12/06 06:03:41;;;;;;;37.10;13.15;;;3.60;99.90;;;3.33;100.00;100624.06;5244341;28;20059;-46
2023/12/06 06:06:13;;;;;;;36.60;14.85;;;3.60;99.90;;;3.33;100.00;100626.63;5240888;28;20091;-47
2023/12/06 06:08:46;;;;;;;41.00;14.10;;;3.70;99.90;;;3.33;100.00;100629.22;5249095;28;20473;-47
2023/12/06 06:11:18;;;;;;;42.75;14.75;;;3.70;99.90;;;3.32;100.00;100629.97;5241485;28;20041;-46
2023/12/06 06:13:50;;;;;;;40.10;14.85;;;3.60;99.90;;;3.30;100.00;100636.75;5253697;28;20056;-46
2023/12/06 06:16:24;;;;;;;42.60;14.85;;;3.60;99.90;;;3.27;100.00;100639.13;5246420;28;20041;-47
2023/12/06 06:18:56;;;;;;;41.42;14.18;;;3.60;99.90;;;3.26;100.00;100637.38;5244123;28;20048;-47
2023/12/06 06:21:29;;;;;;;40.70;15.20;;;3.60;99.90;;;3.26;100.00;100642.53;5249522;28;20510;-46
2023/12/06 06:24:01;;;;;;;40.20;14.57;;;3.60;99.90;;;3.30;100.00;100639.31;5231915;28;20064;-46
2023/12/06 06:26:33;;;;;;;38.30;14.75;;;3.60;99.90;;;3.31;100.00;100638.50;5243339;28;20060;-46
2023/12/06 06:29:07;;;;;;;34.28;14.40;;;3.60;99.90;;;3.34;100.00;100646.44;5244367;28;20040;-47
2023/12/06 06:31:41;;;;;;;38.08;15.02;;;3.60;99.90;;;3.36;100.00;100650.00;5248965;28;20056;-47
2023/12/06 06:34:14;;;;;;;37.05;14.18;;;3.70;99.90;;;3.36;100.00;100649.09;5225054;28;20041;-47
2023/12/06 06:36:46;;;;;;;35.42;13.68;;;3.70;99.90;;;3.37;100.00;100656.94;5238101;28;20044;-47
2023/12/06 06:39:18;;;;;;;35.83;13.90;;;3.70;99.90;;;3.37;100.00;100658.63;5226637;28;20045;-47
2023/12/06 06:41:51;;;;;;;33.10;13.45;;;3.70;99.90;;;3.39;100.00;100660.50;5239895;28;20048;-48
2023/12/06 06:44:23;;;;;;;36.17;13.82;;;3.70;99.90;;;3.41;100.00;100653.75;5225738;28;20135;-47
2023/12/06 06:46:57;;;;;;;33.75;12.93;;;3.70;99.90;;;3.43;100.00;100662.47;5242669;28;20072;-47
2023/12/06 06:49:29;;;;;;;29.65;12.27;;;3.70;99.90;;;3.42;100.00;100658.09;5242278;28;20040;-47
2023/12/06 06:52:02;;;;;;;35.65;14.18;;;3.70;99.90;;;3.46;100.00;100662.66;5242482;28;20700;-47
2023/12/06 06:54:35;;;;;;;34.35;14.48;;;3.80;99.90;;;3.46;100.00;100654.03;5246855;28;20045;-46
2023/12/06 06:57:07;;;;;;;39.58;14.13;;;3.80;99.90;;;3.45;100.00;100663.44;5242362;28;20408;-47
2023/12/06 06:59:39;;;;;;;35.15;14.30;;;3.80;99.90;;;3.44;100.00;100661.66;5241911;28;20065;-47
2023/12/06 07:02:13;;;;;;;33.53;12.63;;;3.80;99.90;;;3.45;100.00;100667.69;5241002;28;20044;-48
2023/12/06 07:04:45;;;;;;;32.28;13.90;;;3.70;99.90;;;3.46;100.00;100672.06;5240932;28;20442;-47
2023/12/06 07:07:18;;;;;;;37.45;15.63;;;3.80;99.90;;;3.48;100.00;100673.06;5233757;28;20044;-48
2023/12/06 07:09:50;;;;;;;35.22;13.18;;;3.80;99.90;;;3.49;100.00;100677.41;5242299;28;20755;-48
2023/12/06 07:12:23;;;;;;;33.35;14.05;;;3.80;99.90;;;3.48;100.00;100676.53;5233227;28;20502;-47
2023/12/06 07:14:55;;;;;;;34.45;13.85;;;3.80;99.90;;;3.48;100.00;100684.25;5224517;28;20052;-47
2023/12/06 07:17:29;;;;;;;33.50;14.18;;;3.80;99.90;;;3.49;100.00;100688.59;5242243;28;20102;-48
2023/12/06 07:20:04;;;;;;;30.45;12.93;;;3.80;99.90;;;3.53;100.00;100684.53;5228732;28;20113;-48
2023/12/06 07:22:36;;;;;;;30.80;12.50;;;3.80;99.90;;;3.56;100.00;100694.13;5239094;28;20057;-47
2023/12/06 07:25:14;;;;;;;38.72;14.43;;;3.90;99.90;;;3.59;100.00;100690.06;5239860;28;20064;-47
2023/12/06 07:27:46;;;;;;;35.60;15.25;;;3.90;99.90;;;3.61;100.00;100696.19;5241410;28;20051;-47
2023/12/06 07:30:18;;;;;;;34.65;14.20;;;3.90;99.90;;;3.65;100.00;100697.25;5225199;28;20036;-47
2023/12/06 07:32:52;;;;;;;31.10;13.15;;;3.90;99.90;;;3.66;100.00;100691.34;5244275;28;20062;-47
2023/12/06 07:35:25;;;;;;;35.33;14.68;;;4.00;99.90;;;3.65;100.00;100705.91;5241355;28;20040;-47
2023/12/06 07:37:57;;;;;;;37.97;15.13;;;4.00;99.90;;;3.63;100.00;100706.59;5240860;28;20056;-47
2023/12/06 07:40:30;;;;;;;37.20;15.43;;;4.00;99.90;;;3.64;100.00;100716.09;5246563;28;20048;-47
2023/12/06 07:43:02;;;;;;;35.60;14.30;;;4.00;99.90;;;3.67;100.00;100716.31;5235549;28;20071;-47
2023/12/06 07:45:35;;;;;;;36.92;15.32;;;4.00;99.90;;;3.71;100.00;100716.56;5242975;28;20499;-49
2023/12/06 07:48:08;;;;;;;34.90;13.85;;;4.00;99.90;;;3.73;100.00;100724.41;5240699;28;20048;-47
2023/12/06 07:50:41;;;;;;;38.17;15.77;;;4.00;99.90;;;3.75;100.00;100725.38;5232119;28;20542;-48
2023/12/06 07:53:14;;;;;;;33.17;14.73;;;4.10;99.90;;;3.78;100.00;100730.72;5228861;28;20053;-47
2023/12/06 07:55:46;;;;;;;30.25;13.57;;;4.10;99.90;;;3.78;100.00;100730.72;5230991;28;20048;-48
2023/12/06 07:58:19;;;;;;;36.47;14.80;;;4.10;99.90;;;3.75;100.00;100727.97;5240929;28;20500;-49
2023/12/06 08:00:51;;;;;;;30.85;13.52;;;4.10;99.90;;;3.75;100.00;100725.38;5224290;28;20056;-47
2023/12/06 08:03:26;;;;;;;30.08;12.65;;;4.10;99.90;;;3.76;100.00;100732.31;5235366;28;20491;-48
2023/12/06 08:06:01;;;;;;;32.65;13.23;;;4.10;99.90;;;3.76;100.00;100735.78;5223776;28;20461;-48
2023/12/06 08:08:34;;;;;;;31.20;12.77;;;4.10;99.90;;;3.79;100.00;100742.84;5238690;28;20048;-47
2023/12/06 08:11:06;;;;;;;30.73;13.43;;;4.10;99.90;;;3.82;100.00;100740.44;5244105;28;20119;-47
2023/12/06 08:13:39;;;;;;;28.98;12.15;;;4.10;99.90;;;3.84;100.00;100735.34;5239795;28;20055;-46
2023/12/06 08:16:11;;;;;;;28.73;12.15;;;4.10;99.90;;;3.85;100.00;100744.88;5228748;28;20049;-47
2023/12/06 08:18:45;;;;;;;31.50;12.98;;;4.20;99.90;;;3.87;100.00;100748.47;5239952;28;20061;-47
2023/12/06 08:21:17;;;;;;;30.15;13.10;;;4.20;99.90;;;3.86;100.00;100737.25;5241090;28;20044;-47
2023/12/06 08:23:50;;;;;;;32.95;13.57;;;4.20;99.90;;;3.88;100.00;100745.97;5232597;28;20052;-48
2023/12/06 08:26:22;;;;;;;30.42;12.80;;;4.20;99.90;;;3.88;100.00;100748.53;5239839;28;20173;-47
2023/12/06 08:28:55;;;;;;;33.45;13.73;;;4.20;99.90;;;3.90;100.00;100752.09;5230743;28;20044;-46
2023/12/06 08:31:28;;;;;;;29.58;13.00;;;4.20;99.90;;;3.94;100.00;100751.50;5235101;28;20057;-47
2023/12/06 08:34:02;;;;;;;33.67;13.20;;;4.20;99.90;;;3.94;100.00;100755.75;5223012;28;20059;-47
2023/12/06 08:36:34;;;;;;;28.75;12.27;;;4.20;99.90;;;3.96;100.00;100754.16;5240332;28;20389;-48
2023/12/06 08:39:07;;;;;;;35.45;14.38;;;4.30;99.90;;;3.98;100.00;100758.63;5238140;28;20049;-47
2023/12/06 08:41:39;;;;;;;27.50;12.10;;;4.30;99.90;;;3.99;100.00;100760.41;5234911;28;20044;-48
2023/12/06 08:44:11;;;;;;;26.17;11.23;;;4.30;99.90;;;4.00;100.00;100759.59;5227284;28;20056;-48
2023/12/06 08:46:44;;;;;;;27.08;11.45;;;4.30;99.90;;;4.02;100.00;100768.31;5242482;28;20045;-47
2023/12/06 08:49:17;;;;;;;28.63;12.98;;;4.30;99.90;;;4.05;100.00;100776.25;5223584;28;20044;-48
2023/12/06 08:51:50;;;;;;;29.83;12.27;;;4.40;99.90;;;4.05;100.00;100770.22;5242920;28;20052;-47
2023/12/06 08:54:23;;;;;;;30.63;11.77;;;4.40;99.90;;;4.08;100.00;100776.44;5223679;28;20049;-48
2023/12/06 08:56:55;;;;;;;31.02;13.52;;;4.40;99.90;;;4.10;100.00;100768.78;5240147;28;20048;-46
2023/12/06 08:59:28;;;;;;;23.77;11.07;;;4.40;99.90;;;4.12;100.00;100774.03;5224567;28;20045;-48
2023/12/06 09:02:00;;;;;;;28.85;11.52;;;4.40;99.90;;;4.14;100.00;100780.19;5240479;28;20063;-48
2023/12/06 09:04:34;;;;;;;30.25;11.80;;;4.40;99.90;;;4.14;100.00;100780.19;5241908;28;20049;-48
2023/12/06 09:07:06;;;;;;;30.95;13.13;;;4.50;99.90;;;4.15;100.00;100779.38;5229465;28;20059;-47
2023/12/06 09:09:39;;;;;;;30.92;12.57;;;4.50;99.90;;;4.16;100.00;100781.16;5248787;28;20053;-47
2023/12/06 09:12:11;;;;;;;27.80;11.50;;;4.40;99.90;;;4.17;100.00;100782.94;5244202;28;20419;-47
2023/12/06 09:14:44;;;;;;;26.25;11.65;;;4.50;99.90;;;4.20;100.00;100790.88;5244138;28;20040;-46
2023/12/06 09:17:16;;;;;;;28.90;13.18;;;4.50;99.90;;;4.20;100.00;100790.88;5245788;28;20582;-47
2023/12/06 09:19:52;;;;;;;32.78;12.98;;;4.50;99.90;;;4.21;100.00;100788.38;5242397;28;20102;-47
2023/12/06 09:22:24;;;;;;;28.80;12.35;;;4.50;99.90;;;4.22;100.00;100795.31;5244268;28;20041;-47
2023/12/06 09:24:57;;;;;;;25.30;11.75;;;4.50;99.90;;;4.26;100.00;100793.81;5226182;28;20052;-48
2023/12/06 09:27:29;;;;;;;29.17;12.57;;;4.50;99.90;;;4.28;100.00;100794.78;5240487;28;20040;-47
2023/12/06 09:30:03;;;;;;;28.45;12.18;;;4.50;99.90;;;4.30;100.00;100795.75;5246970;28;20052;-47
2023/12/06 09:32:35;;;;;;;29.83;13.15;;;4.60;99.90;;;4.32;100.00;100796.75;5238772;28;20057;-46
2023/12/06 09:35:09;;;;;;;30.95;12.77;;;4.60;99.90;;;4.32;100.00;100807.97;5227065;28;20041;-47
2023/12/06 09:37:43;;;;;;;27.85;12.15;;;4.60;99.90;;;4.34;100.00;100813.22;5250874;28;20060;-47
2023/12/06 09:40:15;;;;;;;25.73;12.32;;;4.60;99.90;;;4.36;100.00;100814.19;5241558;28;20041;-47
2023/12/06 09:42:54;;;;;;;26.00;12.32;;;4.60;99.90;;;4.39;100.00;100814.41;5239865;28;20045;-47
2023/12/06 09:45:27;;;;;;;25.85;12.30;;;4.70;99.90;;;4.43;100.00;100815.44;5227766;28;20049;-46
2023/12/06 09:48:00;;;;;;;27.70;11.90;;;4.70;99.90;;;4.44;100.00;100818.16;5242164;28;20060;-47
2023/12/06 09:50:33;;;;;;;26.73;11.95;;;4.70;99.90;;;4.46;100.00;100813.06;5227103;28;20067;-47
2023/12/06 09:53:06;;;;;;;28.73;12.43;;;4.80;99.90;;;4.48;100.00;100814.94;5240636;28;20106;-47
2023/12/06 09:55:40;;;;;;;28.45;12.82;;;4.80;99.90;;;4.49;100.00;100816.72;5240603;28;20044;-46
2023/12/06 09:58:15;;;;;;;23.58;11.80;;;4.80;99.90;;;4.53;100.00;100821.25;5239011;28;20057;-47
2023/12/06 10:00:47;;;;;;;26.50;12.02;;;4.80;99.90;;;4.55;100.00;100826.50;5232081;28;20048;-47
2023/12/06 10:03:23;;;;;;;30.10;12.90;;;4.80;99.90;;;4.57;100.00;100828.41;5242635;28;20053;-47
2023/12/06 10:05:57;;;;;;;27.15;11.98;;;4.90;99.90;;;4.57;100.00;100825.81;5224537;28;20044;-49
2023/12/06 10:08:32;;;;;;;26.98;11.88;;;4.80;99.90;;;4.61;100.00;100835.50;5226232;28;20438;-48
2023/12/06 10:11:07;;;;;;;24.85;11.48;;;4.90;99.90;;;4.63;100.00;100838.22;5231686;28;20052;-47
2023/12/06 10:13:41;;;;;;;22.88;11.55;;;4.90;99.90;;;4.65;100.00;100827.97;5240848;28;20033;-48
2023/12/06 10:16:15;;;;;;;24.15;11.00;;;4.90;99.90;;;4.67;100.00;100829.81;5229167;28;20041;-48
2023/12/06 10:18:49;;;;;;;23.60;11.25;;;4.90;99.90;;;4.70;100.00;100836.88;5242110;28;20045;-47
2023/12/06 10:21:23;;;;;;;25.08;10.68;;;5.00;99.90;;;4.70;100.00;100837.75;5240973;28;20127;-47
2023/12/06 10:23:57;;;;;;;28.73;12.65;;;4.90;99.90;;;4.72;100.00;100840.44;5231761;28;20056;-47
2023/12/06 10:26:29;;;;;;;32.58;12.63;;;5.00;99.90;;;4.74;100.00;100847.44;5244101;28;20041;-48
2023/12/06 10:29:02;;;;;;;28.80;12.70;;;5.00;99.90;;;4.72;100.00;100840.44;5229242;28;20053;-53
2023/12/06 10:31:42;;;;;;;25.50;11.00;;;5.00;99.90;;;4.76;100.00;100839.78;5243357;28;20040;-51